Etusivu
METAR-TAF:

METAR-TAF

Lentoasemat :

Albert, Ranska

Leveyspiiri: 49-58-21N, Pituuspiiri: 002-41-29E, korkeus merenpinnasta: 111 m

Tämänhetkinen sää

Tämä raportti tehtiin 31 minuuttia sitten, kello 03.30 UTC
Tuuli 2 kn lännestä/lounaasta
Lämpötila 1°C
Kosteus 100%
Ilmanpaine 1026 hPa
Näkyvyys: 0400 m
Hajonneita pilviä 1400 ft:n korkeudessa
sumuhattaroita

METAR: LFAQ 190330Z AUTO 25002KT 1000 0400 R27/0500D BCFG BKN014 01/01 Q1026

Aika: 05:01 (04:01 UTC)

Sääennuste

Tämä raportti tehtiin 14 tuntia ja 1 minuuttia sitten, kello 14.00 UTC
Ennuste voimassa 18. päivästä klo 15 UTC - 18. päivään klo 24 UTC
Tuuli 10 kn lännestä/luoteesta
Näkyvyys 10 km tai enemmän
Hajanaisia pilviä 3000 ft:n korkeudessa
Tulossa
18. päivästä klo 18 UTC - 18. päivään klo 20 UTC
Tuuli 3 kn eri suunnista

TAF: LFAQ 181400Z 1815/1824 30010KT 9999 SCT030 BECMG 1818/1820 VRB03KT

Säähavainnot ja -ennusteet yli 4000 lentoasemalta (METAR- ja TAF-raportit).

Käytössä olevat sääasemat on merkitty karttaan keltaisilla ja punaisilla pisteillä.

Aseta hiiri pisteen päälle nähdäksesi sääaseman nimen.

Klikkaa sitten nähdäksesi säähavainnot ja -ennusteet.

Kartan vaihtaminen: klikkaa mustalla rastilla varustettuja vihreitä pisteitä, niin voit zoomata sisään; viivalla varustettua vihreää pistettä, niin voit zoomata ulos tai vihreitä nuolia, niin pääset viereisille kartoille.


METAR-TAF: